createdAt,value
2023-04-24T00:00:41.779Z,8.47
2023-04-24T00:03:12.130Z,9.23
2023-04-24T00:05:41.168Z,9.87
2023-04-24T00:08:09.174Z,9.13
2023-04-24T00:10:37.193Z,9.97
2023-04-24T00:13:05.339Z,9.77
2023-04-24T00:15:33.962Z,10.07
2023-04-24T00:18:03.463Z,10.20
2023-04-24T00:20:33.534Z,9.43
2023-04-24T00:23:01.509Z,8.87
2023-04-24T00:25:29.496Z,9.43
2023-04-24T00:27:59.819Z,8.60
2023-04-24T00:30:27.821Z,8.50
2023-04-24T00:32:55.832Z,8.50
2023-04-24T00:35:24.312Z,8.80
2023-04-24T00:37:53.658Z,8.50
2023-04-24T00:40:21.849Z,8.27
2023-04-24T00:42:50.647Z,8.63
2023-04-24T00:45:19.046Z,7.90
2023-04-24T00:47:48.687Z,8.23
2023-04-24T00:50:18.236Z,7.90
2023-04-24T00:52:46.290Z,8.77
2023-04-24T00:55:16.321Z,9.20
2023-04-24T00:57:44.698Z,9.53
2023-04-24T01:00:13.789Z,9.17
2023-04-24T01:02:45.113Z,9.47
2023-04-24T01:05:14.157Z,8.57
2023-04-24T01:07:46.558Z,8.70
2023-04-24T01:10:18.013Z,8.80
2023-04-24T01:12:46.139Z,8.20
2023-04-24T01:15:14.201Z,8.50
2023-04-24T01:17:42.300Z,9.00
2023-04-24T01:20:11.716Z,8.27
2023-04-24T01:22:41.841Z,8.83
2023-04-24T01:25:10.545Z,8.10
2023-04-24T01:27:38.554Z,7.87
2023-04-24T01:30:08.273Z,7.87
2023-04-24T01:32:37.279Z,8.53
2023-04-24T01:35:06.237Z,8.10
2023-04-24T01:37:34.334Z,7.60
2023-04-24T01:40:05.023Z,7.30
2023-04-24T01:42:33.080Z,6.77
2023-04-24T01:45:02.172Z,7.07
2023-04-24T01:47:31.944Z,6.80
2023-04-24T01:50:00.415Z,7.23
2023-04-24T01:52:29.843Z,6.83
2023-04-24T01:54:57.792Z,6.93
2023-04-24T01:57:27.384Z,7.00
2023-04-24T01:59:55.341Z,6.60
2023-04-24T02:02:24.991Z,6.87
2023-04-24T02:04:53.070Z,6.00
2023-04-24T02:07:21.074Z,6.93
2023-04-24T02:09:49.123Z,6.17
2023-04-24T02:12:18.299Z,6.10
2023-04-24T02:14:47.727Z,6.47
2023-04-24T02:17:17.084Z,6.70
2023-04-24T02:19:45.127Z,6.30
2023-04-24T02:22:13.214Z,6.33
2023-04-24T02:24:41.482Z,5.87
2023-04-24T02:27:09.467Z,6.43
2023-04-24T02:29:37.551Z,6.10
2023-04-24T02:32:07.030Z,7.23
2023-04-24T02:34:35.037Z,6.30
2023-04-24T02:37:03.003Z,6.60
2023-04-24T02:39:31.270Z,7.07
2023-04-24T02:41:59.263Z,7.43
2023-04-24T02:44:27.263Z,7.00
2023-04-24T02:46:55.237Z,7.40
2023-04-24T02:49:24.624Z,6.63
2023-04-24T02:51:52.602Z,7.27
2023-04-24T02:54:20.680Z,6.67
2023-04-24T02:56:48.665Z,6.67
2023-04-24T02:59:16.640Z,6.87
2023-04-24T03:01:44.665Z,6.03
2023-04-24T03:04:12.966Z,6.73
2023-04-24T03:06:42.659Z,6.30
2023-04-24T03:09:10.663Z,6.10
2023-04-24T03:11:38.673Z,6.10
2023-04-24T03:14:06.629Z,6.10
2023-04-24T03:16:35.239Z,6.93
2023-04-24T03:19:03.523Z,6.13
2023-04-24T03:21:31.657Z,5.73
2023-04-24T03:24:01.128Z,5.40
2023-04-24T03:26:29.190Z,5.43
2023-04-24T03:28:57.428Z,5.47
2023-04-24T03:31:25.651Z,5.17
2023-04-24T03:33:53.662Z,5.40
2023-04-24T03:36:23.027Z,5.97
2023-04-24T03:38:51.030Z,5.60
2023-04-24T03:41:20.921Z,5.43
2023-04-24T03:43:48.892Z,5.40
2023-04-24T03:46:16.963Z,5.37
2023-04-24T03:48:45.038Z,4.90
2023-04-24T03:51:13.033Z,5.83
2023-04-24T03:53:41.065Z,4.83
2023-04-24T03:56:09.148Z,5.57
2023-04-24T03:58:38.491Z,4.73
2023-04-24T04:01:06.651Z,5.27
2023-04-24T04:03:34.766Z,5.80
2023-04-24T04:06:02.858Z,5.77
2023-04-24T04:08:31.343Z,5.80
2023-04-24T04:10:59.380Z,5.27
2023-04-24T04:13:27.396Z,5.30
2023-04-24T04:15:57.136Z,5.50
2023-04-24T04:18:25.152Z,5.73
2023-04-24T04:20:53.167Z,5.67
2023-04-24T04:23:21.748Z,5.27
2023-04-24T04:25:50.917Z,5.00
2023-04-24T04:28:20.821Z,6.43
2023-04-24T04:30:49.133Z,5.73
2023-04-24T04:33:19.317Z,5.27
2023-04-24T04:35:49.720Z,5.60
2023-04-24T04:38:17.857Z,5.50
2023-04-24T04:40:46.574Z,5.57
2023-04-24T04:43:15.912Z,5.37
2023-04-24T04:45:44.473Z,5.30
2023-04-24T04:48:14.490Z,5.27
2023-04-24T04:50:43.871Z,5.07
2023-04-24T04:53:11.909Z,5.50
2023-04-24T04:55:40.273Z,4.97
2023-04-24T04:58:08.272Z,5.37
2023-04-24T05:00:38.350Z,5.27
2023-04-24T05:03:20.020Z,5.10
2023-04-24T05:05:51.049Z,5.30
2023-04-24T05:08:27.139Z,5.93
2023-04-24T05:10:55.882Z,5.30
2023-04-24T05:13:35.649Z,5.57
2023-04-24T05:16:07.776Z,5.00
2023-04-24T05:18:35.883Z,5.63
2023-04-24T05:21:05.339Z,5.30
2023-04-24T05:23:33.434Z,5.53
2023-04-24T05:26:01.483Z,5.57
2023-04-24T05:28:29.920Z,5.60
2023-04-24T05:30:58.960Z,6.10
2023-04-24T05:33:28.208Z,5.27
2023-04-24T05:35:57.685Z,5.83
2023-04-24T05:38:27.094Z,5.47
2023-04-24T05:40:55.050Z,5.90
2023-04-24T05:43:23.030Z,5.97
2023-04-24T05:45:51.028Z,6.30
2023-04-24T05:48:19.034Z,6.73
2023-04-24T05:50:48.907Z,6.17
2023-04-24T05:53:17.280Z,6.50
2023-04-24T05:55:47.150Z,6.10
2023-04-24T05:58:15.552Z,6.50
2023-04-24T06:00:45.421Z,5.83
2023-04-24T06:03:13.809Z,5.70
2023-04-24T06:05:42.250Z,5.00
2023-04-24T06:08:10.347Z,5.33
2023-04-24T06:10:41.197Z,5.03
2023-04-24T06:13:10.731Z,5.03
2023-04-24T06:15:39.195Z,5.03
2023-04-24T06:18:07.390Z,4.70
2023-04-24T06:20:35.735Z,4.30
2023-04-24T06:23:03.840Z,4.27
2023-04-24T06:25:32.016Z,4.00
2023-04-24T06:28:00.312Z,4.07
2023-04-24T06:30:29.958Z,4.10
2023-04-24T06:33:09.261Z,4.37
2023-04-24T06:35:41.372Z,4.50
2023-04-24T06:38:09.346Z,4.20
2023-04-24T06:40:37.678Z,4.40
2023-04-24T06:43:07.177Z,4.30
2023-04-24T06:45:40.110Z,4.47
2023-04-24T06:48:08.278Z,3.93
2023-04-24T06:50:37.112Z,4.50
2023-04-24T06:53:05.834Z,4.30
2023-04-24T06:55:33.945Z,4.23
2023-04-24T06:58:02.038Z,3.80
2023-04-24T07:00:31.005Z,4.20
2023-04-24T07:03:00.651Z,4.57
2023-04-24T07:05:29.154Z,4.10
2023-04-24T07:07:59.219Z,4.17
2023-04-24T07:10:29.551Z,5.30
2023-04-24T07:13:00.393Z,4.03
2023-04-24T07:15:28.375Z,4.53
2023-04-24T07:17:59.407Z,4.17
2023-04-24T07:20:29.096Z,4.07
2023-04-24T07:22:57.217Z,4.33
2023-04-24T07:25:25.679Z,4.10
2023-04-24T07:27:54.125Z,4.13
2023-04-24T07:30:22.372Z,4.30
2023-04-24T07:32:50.378Z,4.68
2023-04-24T07:35:18.694Z,4.33
2023-04-24T07:37:48.090Z,4.30
2023-04-24T07:40:17.757Z,4.43
2023-04-24T07:42:45.873Z,3.75
2023-04-24T07:45:13.924Z,4.60
2023-04-24T07:47:44.789Z,4.07
2023-04-24T07:50:13.225Z,4.10
2023-04-24T07:52:41.391Z,4.13
2023-04-24T07:55:11.036Z,4.28
2023-04-24T07:57:39.073Z,3.53
2023-04-24T08:00:11.638Z,3.45
2023-04-24T08:02:39.861Z,4.03
2023-04-24T08:05:09.029Z,3.30
2023-04-24T08:07:37.342Z,3.80
2023-04-24T08:10:06.158Z,3.55
2023-04-24T08:12:37.351Z,3.45
2023-04-24T08:15:06.290Z,3.20
2023-04-24T08:17:34.630Z,2.70
2023-04-24T08:20:03.492Z,2.90
2023-04-24T08:22:31.483Z,2.92
2023-04-24T08:25:01.729Z,3.17
2023-04-24T08:27:30.208Z,3.22
2023-04-24T08:30:00.827Z,3.33
2023-04-24T08:32:30.027Z,2.60
2023-04-24T08:34:58.585Z,2.92
2023-04-24T08:37:27.778Z,2.88
2023-04-24T08:39:55.924Z,2.92
2023-04-24T08:42:28.137Z,3.20
2023-04-24T08:45:00.017Z,2.92
2023-04-24T08:47:31.932Z,2.97
2023-04-24T08:50:00.665Z,3.00
2023-04-24T08:52:29.469Z,3.05
2023-04-24T08:54:58.489Z,3.00
2023-04-24T08:57:28.192Z,2.97
2023-04-24T08:59:58.176Z,2.72
2023-04-24T09:02:26.963Z,2.72
2023-04-24T09:04:58.408Z,3.30
2023-04-24T09:07:27.458Z,3.00
2023-04-24T09:09:56.102Z,2.85
2023-04-24T09:12:26.781Z,2.70
2023-04-24T09:14:56.173Z,2.97
2023-04-24T09:17:24.542Z,2.80
2023-04-24T09:19:52.625Z,3.35
2023-04-24T09:22:23.177Z,2.75
2023-04-24T09:25:01.495Z,2.70
2023-04-24T09:27:30.817Z,2.92
2023-04-24T09:29:59.579Z,2.65
2023-04-24T09:32:29.681Z,2.63
2023-04-24T09:35:12.159Z,3.13
2023-04-24T09:37:43.495Z,3.03
2023-04-24T09:40:19.693Z,2.78
2023-04-24T09:42:48.783Z,2.95
2023-04-24T09:45:19.291Z,2.90
2023-04-24T09:47:47.385Z,2.80
2023-04-24T09:50:17.348Z,2.80
2023-04-24T09:52:49.450Z,2.50
2023-04-24T09:55:21.495Z,2.72
2023-04-24T09:57:53.598Z,2.58
2023-04-24T10:00:24.963Z,2.30
2023-04-24T10:02:56.916Z,2.10
2023-04-24T10:05:30.866Z,1.92
2023-04-24T10:08:03.739Z,1.98
2023-04-24T10:10:32.525Z,2.33
2023-04-24T10:13:03.624Z,2.30
2023-04-24T10:15:32.079Z,2.30
2023-04-24T10:18:01.382Z,2.10
2023-04-24T10:20:31.579Z,2.60
2023-04-24T10:23:02.005Z,2.47
2023-04-24T10:25:32.570Z,2.42
2023-04-24T10:28:01.603Z,2.20
2023-04-24T10:30:31.572Z,2.20
2023-04-24T10:32:59.625Z,1.98
2023-04-24T10:35:27.843Z,2.20
2023-04-24T10:38:01.921Z,2.50
2023-04-24T10:40:33.918Z,2.10
2023-04-24T10:43:04.153Z,2.10
2023-04-24T10:45:32.124Z,2.38
2023-04-24T10:48:05.037Z,2.30
2023-04-24T10:50:45.808Z,2.55
2023-04-24T10:53:20.089Z,2.38
2023-04-24T10:55:50.287Z,2.60
2023-04-24T10:58:18.852Z,2.30
2023-04-24T11:00:57.154Z,2.25
2023-04-24T11:03:27.842Z,2.00
2023-04-24T11:05:59.751Z,2.30
2023-04-24T11:08:31.387Z,1.88
2023-04-24T11:11:05.563Z,2.25
2023-04-24T11:14:10.797Z,2.42
2023-04-24T11:16:48.237Z,2.28
2023-04-24T11:19:26.855Z,2.00
2023-04-24T11:22:02.120Z,2.30
2023-04-24T11:24:33.775Z,2.45
2023-04-24T11:27:07.750Z,2.30
2023-04-24T11:29:47.173Z,2.00
2023-04-24T11:32:29.660Z,2.60
2023-04-24T11:34:59.071Z,2.30
2023-04-24T11:37:28.696Z,2.30
2023-04-24T11:40:01.138Z,2.40
2023-04-24T11:42:30.551Z,2.47
2023-04-24T11:44:58.847Z,2.20
2023-04-24T11:47:32.051Z,2.20
2023-04-24T11:50:01.416Z,2.33
2023-04-24T11:52:31.175Z,2.25
2023-04-24T11:55:03.301Z,2.78
2023-04-24T11:57:34.708Z,2.15
2023-04-24T12:00:04.570Z,2.20
2023-04-24T12:02:33.797Z,2.55
2023-04-24T12:05:02.253Z,2.17
2023-04-24T12:07:30.527Z,2.40
2023-04-24T12:10:01.871Z,2.50
2023-04-24T12:12:30.419Z,2.90
2023-04-24T12:15:00.172Z,2.35
2023-04-24T12:17:30.252Z,2.60
2023-04-24T12:20:03.377Z,2.53
2023-04-24T12:22:46.614Z,2.25
2023-04-24T12:25:18.861Z,2.53
2023-04-24T12:27:47.409Z,2.60
2023-04-24T12:30:17.189Z,2.88
2023-04-24T12:32:46.114Z,2.15
2023-04-24T12:35:14.273Z,2.55
2023-04-24T12:37:47.245Z,2.22
2023-04-24T12:40:18.798Z,2.40
2023-04-24T12:42:48.223Z,2.45
2023-04-24T12:45:16.873Z,3.15
2023-04-24T12:47:46.014Z,2.90
2023-04-24T12:50:16.159Z,3.55
2023-04-24T12:52:44.777Z,3.55
2023-04-24T12:55:13.217Z,3.28
2023-04-24T12:57:42.872Z,3.28
2023-04-24T13:00:11.771Z,3.00
2023-04-24T13:02:40.362Z,3.08
2023-04-24T13:05:09.036Z,3.40
2023-04-24T13:07:37.042Z,3.35
2023-04-24T13:10:05.491Z,3.10
2023-04-24T13:12:33.728Z,3.10
2023-04-24T13:15:03.180Z,3.55
2023-04-24T13:17:31.289Z,3.13
2023-04-24T13:19:59.577Z,3.20
2023-04-24T13:22:28.272Z,3.05
2023-04-24T13:24:58.113Z,3.45
2023-04-24T13:27:26.098Z,3.53
2023-04-24T13:29:54.080Z,3.10
2023-04-24T13:32:23.486Z,3.33
2023-04-24T13:34:51.640Z,3.45
2023-04-24T13:37:19.620Z,2.90
2023-04-24T13:39:47.608Z,2.95
2023-04-24T13:42:15.677Z,4.53
2023-04-24T13:44:44.247Z,3.40
2023-04-24T13:47:12.258Z,3.38
2023-04-24T13:49:41.906Z,2.95
2023-04-24T13:52:11.331Z,3.17
2023-04-24T13:54:39.298Z,3.17
2023-04-24T13:57:07.599Z,2.78
2023-04-24T13:59:36.994Z,2.80
2023-04-24T14:02:05.019Z,2.90
2023-04-24T14:04:33.242Z,3.10
2023-04-24T14:07:02.846Z,3.07
2023-04-24T14:09:31.082Z,3.03
2023-04-24T14:11:59.234Z,3.17
2023-04-24T14:14:30.760Z,3.00
2023-04-24T14:16:59.205Z,2.70
2023-04-24T14:19:27.193Z,2.90
2023-04-24T14:21:56.592Z,2.80
2023-04-24T14:24:26.419Z,2.50
2023-04-24T14:26:54.428Z,2.50
2023-04-24T14:29:22.432Z,2.50
2023-04-24T14:31:50.601Z,2.40
2023-04-24T14:34:21.666Z,2.10
2023-04-24T14:36:51.184Z,1.90
2023-04-24T14:39:19.302Z,2.00
2023-04-24T14:41:48.675Z,2.07
2023-04-24T14:44:19.287Z,2.00
2023-04-24T14:46:47.686Z,2.30
2023-04-24T14:49:15.799Z,1.93
2023-04-24T14:51:44.608Z,1.80
2023-04-24T14:54:12.590Z,2.17
2023-04-24T14:56:41.884Z,1.80
2023-04-24T14:59:11.280Z,1.90
2023-04-24T15:01:39.311Z,1.90
2023-04-24T15:04:07.453Z,2.00
2023-04-24T15:06:35.636Z,2.23
2023-04-24T15:09:03.652Z,1.50
2023-04-24T15:11:31.728Z,1.37
2023-04-24T15:13:59.753Z,1.47
2023-04-24T15:16:29.415Z,1.50
2023-04-24T15:18:58.119Z,1.60
2023-04-24T15:21:27.077Z,1.50
2023-04-24T15:23:55.205Z,1.57
2023-04-24T15:26:24.206Z,1.30
2023-04-24T15:28:52.681Z,1.30
2023-04-24T15:31:21.378Z,1.20
2023-04-24T15:33:51.612Z,1.27
2023-04-24T15:36:20.358Z,1.37
2023-04-24T15:38:48.445Z,1.40
2023-04-24T15:41:16.422Z,1.20
2023-04-24T15:43:44.399Z,1.23
2023-04-24T15:46:12.722Z,1.37
2023-04-24T15:48:42.165Z,1.50
2023-04-24T15:51:11.738Z,1.47
2023-04-24T15:53:39.739Z,1.03
2023-04-24T15:56:07.793Z,1.30
2023-04-24T15:58:36.746Z,1.30
2023-04-24T16:01:05.056Z,1.10
2023-04-24T16:03:33.207Z,1.30
2023-04-24T16:06:01.285Z,1.30
2023-04-24T16:08:31.067Z,1.57
2023-04-24T16:10:59.137Z,1.40
2023-04-24T16:13:31.878Z,1.50
2023-04-24T16:15:59.919Z,1.47
2023-04-24T16:18:27.930Z,1.70
2023-04-24T16:20:58.288Z,1.60
2023-04-24T16:23:26.327Z,1.57
2023-04-24T16:25:56.108Z,1.30
2023-04-24T16:28:24.121Z,1.27
2023-04-24T16:30:52.557Z,1.30
2023-04-24T16:33:20.682Z,1.20
2023-04-24T16:35:48.672Z,1.20
2023-04-24T16:38:16.925Z,1.00
2023-04-24T16:40:48.659Z,1.30
2023-04-24T16:43:18.091Z,1.00
2023-04-24T16:45:46.290Z,1.30
2023-04-24T16:48:14.320Z,1.10
2023-04-24T16:50:42.358Z,1.40
2023-04-24T16:53:10.356Z,1.33
2023-04-24T16:55:38.377Z,1.20
2023-04-24T16:58:07.052Z,1.40
2023-04-24T17:00:37.891Z,1.50
2023-04-24T17:03:07.173Z,1.50
2023-04-24T17:05:38.142Z,1.67
2023-04-24T17:08:06.269Z,1.90
2023-04-24T17:10:34.311Z,1.63
2023-04-24T17:13:02.465Z,2.10
2023-04-24T17:15:30.625Z,2.10
2023-04-24T17:18:03.465Z,2.30
2023-04-24T17:20:31.532Z,2.10
2023-04-24T17:22:59.903Z,2.43
2023-04-24T17:25:28.119Z,2.10
2023-04-24T17:27:56.164Z,2.27
2023-04-24T17:30:24.560Z,2.63
2023-04-24T17:32:52.679Z,2.40
2023-04-24T17:35:22.888Z,2.30
2023-04-24T17:37:50.960Z,2.50
2023-04-24T17:40:19.118Z,2.70
2023-04-24T17:42:47.350Z,2.73
2023-04-24T17:45:15.469Z,3.20
2023-04-24T17:47:43.717Z,2.80
2023-04-24T17:50:12.090Z,2.83
2023-04-24T17:52:41.611Z,3.03
2023-04-24T17:55:11.024Z,3.03
2023-04-24T17:57:39.094Z,2.73
2023-04-24T18:00:11.324Z,3.10
2023-04-24T18:02:39.428Z,3.13
2023-04-24T18:05:10.514Z,3.47
2023-04-24T18:07:39.241Z,3.10
2023-04-24T18:10:10.269Z,3.70
2023-04-24T18:12:39.073Z,3.37
2023-04-24T18:15:14.289Z,3.83
2023-04-24T18:17:44.714Z,3.80
2023-04-24T18:20:13.273Z,3.80
2023-04-24T18:22:42.102Z,3.53
2023-04-24T18:25:12.240Z,3.87
2023-04-24T18:27:41.054Z,4.50
2023-04-24T18:30:14.178Z,4.33
2023-04-24T18:32:42.925Z,4.60
2023-04-24T18:35:12.030Z,4.77
2023-04-24T18:37:40.522Z,4.10
2023-04-24T18:40:11.269Z,4.17
2023-04-24T18:42:39.404Z,3.90
2023-04-24T18:45:14.606Z,4.33
2023-04-24T18:47:43.593Z,4.47
2023-04-24T18:50:13.704Z,4.73
2023-04-24T18:52:44.640Z,4.67
2023-04-24T18:55:13.995Z,4.90
2023-04-24T18:57:42.212Z,5.20
2023-04-24T19:00:11.032Z,5.03
2023-04-24T19:02:39.372Z,5.43
2023-04-24T19:05:10.369Z,5.07
2023-04-24T19:07:38.462Z,5.60
2023-04-24T19:10:08.980Z,5.17
2023-04-24T19:12:38.352Z,5.73
2023-04-24T19:15:10.715Z,5.67
2023-04-24T19:17:38.866Z,5.00
2023-04-24T19:20:08.526Z,5.57
2023-04-24T19:22:36.760Z,5.13
2023-04-24T19:25:08.388Z,4.77
2023-04-24T19:27:36.434Z,4.97
2023-04-24T19:30:09.577Z,4.60
2023-04-24T19:32:37.736Z,4.17
2023-04-24T19:35:06.526Z,3.90
2023-04-24T19:37:35.327Z,3.80
2023-04-24T19:40:03.586Z,3.90
2023-04-24T19:42:43.393Z,3.67
2023-04-24T19:45:14.501Z,3.80
2023-04-24T19:47:43.175Z,3.80
2023-04-24T19:50:11.756Z,4.17
2023-04-24T19:52:39.868Z,4.47
2023-04-24T19:55:10.366Z,4.40
2023-04-24T19:57:38.366Z,4.17
2023-04-24T20:00:09.399Z,3.70
2023-04-24T20:02:41.240Z,4.37
2023-04-24T20:05:10.138Z,3.90
2023-04-24T20:07:41.117Z,4.00
2023-04-24T20:10:10.456Z,3.53
2023-04-24T20:12:38.573Z,3.93
2023-04-24T20:15:07.671Z,3.87
2023-04-24T20:17:35.723Z,3.87
2023-04-24T20:20:08.093Z,4.13
2023-04-24T20:22:38.827Z,3.60
2023-04-24T20:25:08.252Z,3.77
2023-04-24T20:27:38.237Z,4.30
2023-04-24T20:30:10.479Z,3.93
2023-04-24T20:32:42.860Z,4.30
2023-04-24T20:35:13.054Z,4.50
2023-04-24T20:37:41.337Z,4.20
2023-04-24T20:40:10.380Z,4.50
2023-04-24T20:42:39.477Z,4.27
2023-04-24T20:45:08.557Z,5.20
2023-04-24T20:47:36.849Z,4.60
2023-04-24T20:50:06.460Z,4.50
2023-04-24T20:52:38.026Z,5.20
2023-04-24T20:55:07.051Z,5.93
2023-04-24T20:57:37.655Z,6.30
2023-04-24T21:00:08.745Z,6.60
2023-04-24T21:02:38.088Z,6.70
2023-04-24T21:05:07.106Z,6.30
2023-04-24T21:07:39.473Z,6.17
2023-04-24T21:10:08.825Z,6.40
2023-04-24T21:12:39.521Z,6.40
2023-04-24T21:15:08.549Z,6.93
2023-04-24T21:17:39.347Z,6.30
2023-04-24T21:20:08.975Z,6.63
2023-04-24T21:22:38.339Z,6.70
2023-04-24T21:25:10.096Z,7.03
2023-04-24T21:27:38.981Z,7.23
2023-04-24T21:30:09.347Z,7.80
2023-04-24T21:32:37.413Z,7.17
2023-04-24T21:35:06.038Z,7.67
2023-04-24T21:37:35.475Z,7.03
2023-04-24T21:40:08.405Z,6.97
2023-04-24T21:42:36.621Z,7.47
2023-04-24T21:45:05.080Z,7.37
2023-04-24T21:47:33.225Z,7.10
2023-04-24T21:50:01.310Z,7.57
2023-04-24T21:52:29.308Z,7.40
2023-04-24T21:54:57.316Z,7.87
2023-04-24T21:57:29.555Z,8.20
2023-04-24T21:59:57.725Z,8.43
2023-04-24T22:02:25.977Z,8.83
2023-04-24T22:04:56.400Z,9.47
2023-04-24T22:07:24.798Z,10.13
2023-04-24T22:09:52.796Z,11.87
2023-04-24T22:12:20.876Z,12.47
2023-04-24T22:14:50.251Z,13.43
2023-04-24T22:17:18.946Z,12.23
2023-04-24T22:19:49.682Z,12.50
2023-04-24T22:22:19.602Z,13.20
2023-04-24T22:24:48.780Z,13.77
2023-04-24T22:27:16.831Z,13.57
2023-04-24T22:29:47.102Z,14.47
2023-04-24T22:32:18.737Z,14.97
2023-04-24T22:34:46.742Z,15.50
2023-04-24T22:37:14.732Z,18.00
2023-04-24T22:39:42.695Z,17.50
2023-04-24T22:42:10.683Z,17.57
2023-04-24T22:44:38.887Z,18.13
2023-04-24T22:47:09.612Z,17.57
2023-04-24T22:49:39.817Z,18.30
2023-04-24T22:52:08.838Z,19.57
2023-04-24T22:54:36.821Z,18.13
2023-04-24T22:57:04.959Z,17.63
2023-04-24T22:59:33.003Z,19.27
2023-04-24T23:02:01.665Z,19.97
2023-04-24T23:04:30.211Z,19.33
2023-04-24T23:07:02.651Z,18.57
2023-04-24T23:09:30.772Z,17.87
2023-04-24T23:11:58.968Z,19.20
2023-04-24T23:14:27.723Z,18.63
2023-04-24T23:16:55.773Z,18.67
2023-04-24T23:19:26.151Z,19.93
2023-04-24T23:21:54.260Z,19.80
2023-04-24T23:24:23.807Z,20.13
2023-04-24T23:26:52.101Z,19.23
2023-04-24T23:29:23.009Z,20.17
2023-04-24T23:31:51.032Z,21.23
2023-04-24T23:34:20.132Z,19.90
2023-04-24T23:36:48.565Z,22.53
2023-04-24T23:39:16.834Z,21.83
2023-04-24T23:41:46.231Z,21.00
2023-04-24T23:44:17.874Z,22.27
2023-04-24T23:46:45.860Z,23.63
2023-04-24T23:49:14.722Z,21.70
2023-04-24T23:51:42.832Z,12.80
2023-04-24T23:54:11.225Z,7.50
2023-04-24T23:56:39.315Z,4.40
2023-04-24T23:59:08.670Z,2.83
